createdAt,value
2023-11-12T00:00:26.208Z,99.26
2023-11-12T00:02:52.841Z,98.14
2023-11-12T00:05:19.383Z,97.81
2023-11-12T00:07:46.116Z,97.77
2023-11-12T00:10:12.703Z,97.55
2023-11-12T00:12:42.178Z,98.07
2023-11-12T00:15:09.321Z,98.82
2023-11-12T00:17:35.819Z,99.36
2023-11-12T00:20:02.361Z,99.13
2023-11-12T00:22:28.847Z,99.21
2023-11-12T00:24:55.270Z,99.30
2023-11-12T00:27:21.817Z,99.57
2023-11-12T00:29:48.272Z,99.61
2023-11-12T00:32:14.787Z,99.67
2023-11-12T00:34:41.391Z,99.92
2023-11-12T00:37:07.888Z,100.00
2023-11-12T00:39:34.355Z,100.00
2023-11-12T00:42:00.784Z,100.00
2023-11-12T00:44:27.268Z,99.67
2023-11-12T00:46:53.757Z,98.95
2023-11-12T00:49:20.405Z,98.43
2023-11-12T00:51:47.636Z,98.03
2023-11-12T00:54:14.144Z,98.23
2023-11-12T00:56:40.599Z,98.24
2023-11-12T00:59:07.102Z,98.17
2023-11-12T01:01:33.661Z,97.10
2023-11-12T01:04:00.255Z,96.65
2023-11-12T01:06:26.769Z,96.70
2023-11-12T01:08:53.238Z,96.68
2023-11-12T01:11:19.797Z,96.61
2023-11-12T01:13:46.311Z,96.03
2023-11-12T01:16:13.008Z,95.85
2023-11-12T01:18:39.547Z,95.05
2023-11-12T01:21:06.078Z,94.69
2023-11-12T01:23:32.647Z,94.44
2023-11-12T01:25:59.086Z,94.38
2023-11-12T01:28:25.534Z,94.72
2023-11-12T01:30:51.978Z,95.01
2023-11-12T01:33:18.432Z,95.25
2023-11-12T01:35:45.052Z,95.60
2023-11-12T01:38:11.486Z,95.62
2023-11-12T01:40:38.437Z,95.51
2023-11-12T01:43:04.909Z,95.18
2023-11-12T01:45:31.365Z,95.31
2023-11-12T01:47:58.266Z,95.25
2023-11-12T01:50:24.838Z,95.46
2023-11-12T01:52:51.438Z,96.07
2023-11-12T01:55:21.922Z,95.92
2023-11-12T01:57:49.104Z,96.05
2023-11-12T02:00:15.857Z,96.43
2023-11-12T02:02:43.127Z,96.47
2023-11-12T02:05:09.619Z,96.36
2023-11-12T02:07:37.470Z,95.75
2023-11-12T02:10:05.140Z,95.69
2023-11-12T02:12:31.719Z,95.92
2023-11-12T02:14:58.215Z,96.17
2023-11-12T02:17:25.002Z,96.20
2023-11-12T02:19:51.464Z,96.23
2023-11-12T02:22:17.953Z,96.07
2023-11-12T02:24:44.430Z,95.81
2023-11-12T02:27:10.951Z,95.75
2023-11-12T02:29:37.404Z,95.61
2023-11-12T02:32:04.011Z,95.50
2023-11-12T02:34:30.458Z,95.50
2023-11-12T02:36:56.923Z,95.84
2023-11-12T02:39:23.373Z,96.62
2023-11-12T02:41:49.845Z,96.78
2023-11-12T02:44:16.282Z,96.45
2023-11-12T02:46:42.776Z,96.08
2023-11-12T02:49:23.297Z,95.85
2023-11-12T02:51:49.740Z,95.72
2023-11-12T02:54:16.227Z,95.50
2023-11-12T02:56:42.699Z,95.53
2023-11-12T02:59:09.254Z,95.63
2023-11-12T03:01:35.736Z,95.61
2023-11-12T03:04:02.289Z,95.85
2023-11-12T03:06:28.871Z,96.33
2023-11-12T03:08:55.326Z,96.10
2023-11-12T03:11:21.769Z,96.06
2023-11-12T03:13:48.226Z,96.52
2023-11-12T03:16:14.994Z,97.82
2023-11-12T03:18:41.512Z,97.99
2023-11-12T03:21:10.808Z,98.13
2023-11-12T03:23:37.297Z,99.00
2023-11-12T03:26:03.804Z,99.55
2023-11-12T03:28:30.246Z,99.78
2023-11-12T03:30:56.811Z,99.19
2023-11-12T03:33:23.352Z,99.32
2023-11-12T03:35:49.948Z,98.77
2023-11-12T03:38:16.561Z,99.49
2023-11-12T03:40:43.019Z,99.91
2023-11-12T03:43:09.473Z,99.26
2023-11-12T03:45:36.192Z,100.00
2023-11-12T03:48:03.893Z,100.00
2023-11-12T03:50:30.496Z,100.00
2023-11-12T03:52:57.078Z,100.00
2023-11-12T03:55:23.498Z,100.00
2023-11-12T03:57:49.975Z,100.00
2023-11-12T04:00:16.689Z,100.00
2023-11-12T04:02:43.227Z,100.00
2023-11-12T04:05:09.834Z,100.00
2023-11-12T04:07:36.381Z,100.00
2023-11-12T04:10:02.940Z,100.00
2023-11-12T04:12:29.436Z,100.00
2023-11-12T04:14:55.886Z,100.00
2023-11-12T04:17:22.332Z,100.00
2023-11-12T04:19:48.771Z,99.86
2023-11-12T04:22:15.209Z,100.00
2023-11-12T04:24:41.709Z,100.00
2023-11-12T04:27:08.170Z,100.00
2023-11-12T04:29:34.790Z,100.00
2023-11-12T04:32:01.370Z,100.00
2023-11-12T04:34:28.088Z,100.00
2023-11-12T04:36:54.517Z,100.00
2023-11-12T04:39:20.962Z,100.00
2023-11-12T04:41:47.420Z,100.00
2023-11-12T04:44:13.865Z,100.00
2023-11-12T04:46:40.335Z,100.00
2023-11-12T04:49:06.926Z,100.00
2023-11-12T04:51:33.541Z,100.00
2023-11-12T04:54:00.145Z,100.00
2023-11-12T04:56:26.699Z,100.00
2023-11-12T04:58:53.133Z,100.00
2023-11-12T05:01:19.624Z,100.00
2023-11-12T05:03:46.168Z,100.00
2023-11-12T05:06:12.821Z,100.00
2023-11-12T05:08:39.344Z,100.00
2023-11-12T05:11:05.772Z,100.00
2023-11-12T05:13:32.272Z,100.00
2023-11-12T05:15:58.907Z,100.00
2023-11-12T05:18:25.413Z,100.00
2023-11-12T05:20:51.856Z,100.00
2023-11-12T05:23:18.344Z,100.00
2023-11-12T05:25:45.246Z,100.00
2023-11-12T05:28:11.884Z,100.00
2023-11-12T05:30:39.482Z,100.00
2023-11-12T05:33:06.107Z,100.00
2023-11-12T05:35:33.638Z,100.00
2023-11-12T05:38:00.083Z,100.00
2023-11-12T05:40:26.520Z,100.00
2023-11-12T05:42:52.981Z,100.00
2023-11-12T05:45:19.735Z,100.00
2023-11-12T05:47:46.433Z,100.00
2023-11-12T05:50:12.982Z,100.00
2023-11-12T05:52:39.432Z,100.00
2023-11-12T05:55:06.277Z,100.00
2023-11-12T05:57:32.801Z,100.00
2023-11-12T05:59:59.307Z,100.00
2023-11-12T06:02:25.750Z,100.00
2023-11-12T06:04:52.197Z,100.00
2023-11-12T06:07:18.623Z,100.00
2023-11-12T06:09:45.107Z,100.00
2023-11-12T06:12:11.616Z,100.00
2023-11-12T06:14:38.152Z,100.00
2023-11-12T06:17:04.786Z,100.00
2023-11-12T06:19:31.312Z,100.00
2023-11-12T06:21:57.921Z,100.00
2023-11-12T06:24:24.433Z,100.00
2023-11-12T06:26:50.954Z,100.00
2023-11-12T06:29:17.383Z,99.73
2023-11-12T06:31:43.850Z,99.67
2023-11-12T06:34:10.401Z,99.74
2023-11-12T06:36:36.957Z,99.25
2023-11-12T06:39:03.397Z,99.44
2023-11-12T06:41:29.885Z,99.95
2023-11-12T06:43:56.329Z,100.00
2023-11-12T06:46:22.802Z,99.61
2023-11-12T06:48:49.324Z,98.79
2023-11-12T06:51:25.752Z,98.79
2023-11-12T06:53:52.678Z,98.86
2023-11-12T06:56:19.234Z,99.56
2023-11-12T06:58:45.739Z,99.99
2023-11-12T07:01:12.272Z,99.99
2023-11-12T07:03:39.681Z,100.00
2023-11-12T07:06:06.492Z,100.00
2023-11-12T07:08:33.240Z,99.28
2023-11-12T07:10:59.682Z,99.07
2023-11-12T07:13:26.124Z,98.52
2023-11-12T07:15:52.678Z,98.15
2023-11-12T07:18:19.244Z,97.91
2023-11-12T07:20:45.775Z,97.67
2023-11-12T07:23:12.228Z,97.92
2023-11-12T07:25:38.675Z,97.12
2023-11-12T07:28:05.154Z,96.05
2023-11-12T07:30:31.633Z,95.69
2023-11-12T07:32:58.112Z,95.55
2023-11-12T07:35:24.585Z,95.10
2023-11-12T07:37:51.069Z,94.86
2023-11-12T07:40:17.510Z,94.41
2023-11-12T07:42:43.998Z,94.21
2023-11-12T07:45:13.927Z,93.94
2023-11-12T07:47:42.144Z,93.79
2023-11-12T07:50:09.160Z,93.83
2023-11-12T07:52:35.803Z,93.79
2023-11-12T07:55:03.061Z,93.29
2023-11-12T07:57:29.575Z,93.18
2023-11-12T07:59:56.026Z,93.77
2023-11-12T08:02:23.728Z,93.12
2023-11-12T08:04:50.204Z,92.96
2023-11-12T08:07:16.640Z,92.20
2023-11-12T08:09:46.291Z,92.17
2023-11-12T08:12:13.085Z,91.89
2023-11-12T08:14:39.532Z,91.43
2023-11-12T08:17:05.980Z,90.92
2023-11-12T08:19:32.419Z,89.62
2023-11-12T08:21:58.898Z,88.75
2023-11-12T08:24:25.358Z,88.66
2023-11-12T08:26:51.820Z,89.06
2023-11-12T08:29:18.261Z,88.57
2023-11-12T08:31:44.970Z,88.83
2023-11-12T08:34:11.464Z,88.17
2023-11-12T08:36:37.987Z,88.13
2023-11-12T08:39:04.609Z,88.46
2023-11-12T08:41:31.041Z,87.33
2023-11-12T08:43:57.542Z,88.01
2023-11-12T08:46:24.024Z,88.50
2023-11-12T08:48:50.555Z,90.60
2023-11-12T08:51:17.163Z,90.66
2023-11-12T08:53:43.675Z,90.13
2023-11-12T08:56:10.135Z,89.65
2023-11-12T08:58:36.749Z,89.36
2023-11-12T09:01:05.522Z,89.15
2023-11-12T09:03:32.097Z,89.26
2023-11-12T09:05:58.579Z,89.29
2023-11-12T09:08:25.046Z,90.61
2023-11-12T09:10:51.507Z,90.21
2023-11-12T09:13:17.980Z,89.09
2023-11-12T09:15:44.448Z,87.38
2023-11-12T09:18:13.167Z,86.72
2023-11-12T09:20:39.635Z,86.43
2023-11-12T09:23:06.081Z,85.87
2023-11-12T09:25:32.641Z,85.39
2023-11-12T09:27:59.120Z,85.12
2023-11-12T09:30:25.618Z,85.03
2023-11-12T09:32:52.183Z,84.39
2023-11-12T09:35:18.749Z,84.68
2023-11-12T09:37:45.217Z,83.96
2023-11-12T09:40:12.245Z,83.67
2023-11-12T09:42:39.944Z,83.58
2023-11-12T09:45:07.906Z,83.03
2023-11-12T09:47:56.122Z,82.99
2023-11-12T09:50:24.086Z,84.18
2023-11-12T09:52:51.988Z,85.00
2023-11-12T09:55:20.257Z,84.40
2023-11-12T09:57:48.047Z,83.64
2023-11-12T10:00:15.248Z,83.18
2023-11-12T10:02:41.739Z,83.07
2023-11-12T10:05:08.581Z,83.86
2023-11-12T10:07:35.025Z,83.38
2023-11-12T10:10:19.770Z,83.82
2023-11-12T10:12:46.347Z,83.83
2023-11-12T10:15:12.811Z,85.03
2023-11-12T10:17:46.364Z,84.60
2023-11-12T10:20:30.248Z,84.93
2023-11-12T10:22:56.835Z,85.31
2023-11-12T10:25:43.279Z,84.62
2023-11-12T10:28:11.838Z,83.17
2023-11-12T10:30:57.023Z,81.64
2023-11-12T10:33:23.788Z,81.20
2023-11-12T10:35:50.525Z,81.22
2023-11-12T10:38:17.648Z,81.38
2023-11-12T10:41:00.203Z,81.55
2023-11-12T10:43:26.663Z,82.32
2023-11-12T10:45:58.838Z,82.77
2023-11-12T10:48:38.697Z,82.16
2023-11-12T10:51:07.657Z,82.01
2023-11-12T10:53:38.032Z,82.23
2023-11-12T10:56:05.236Z,82.71
2023-11-12T10:58:32.657Z,82.58
2023-11-12T11:01:00.963Z,81.88
2023-11-12T11:03:29.181Z,81.70
2023-11-12T11:05:57.422Z,81.59
2023-11-12T11:08:27.203Z,81.17
2023-11-12T11:10:54.599Z,81.32
2023-11-12T11:13:21.499Z,80.72
2023-11-12T11:15:49.576Z,81.02
2023-11-12T11:18:34.513Z,81.13
2023-11-12T11:21:03.681Z,81.10
2023-11-12T11:23:43.030Z,80.96
2023-11-12T11:26:24.759Z,80.87
2023-11-12T11:29:06.481Z,81.16
2023-11-12T11:31:33.661Z,81.07
2023-11-12T11:34:00.877Z,81.88
2023-11-12T11:36:27.925Z,82.59
2023-11-12T11:39:03.458Z,80.72
2023-11-12T11:41:48.593Z,80.11
2023-11-12T11:44:41.855Z,79.30
2023-11-12T11:47:16.300Z,79.96
2023-11-12T11:49:46.786Z,79.48
2023-11-12T11:52:22.239Z,79.32
2023-11-12T11:55:02.036Z,78.69
2023-11-12T11:57:29.128Z,78.22
2023-11-12T11:59:59.834Z,78.02
2023-11-12T12:02:26.857Z,79.04
2023-11-12T12:04:58.291Z,77.77
2023-11-12T12:07:29.437Z,76.20
2023-11-12T12:09:59.268Z,76.86
2023-11-12T12:12:26.773Z,75.71
2023-11-12T12:14:53.293Z,77.09
2023-11-12T12:17:19.881Z,76.92
2023-11-12T12:19:52.568Z,77.74
2023-11-12T12:22:25.894Z,78.53
2023-11-12T12:24:54.772Z,79.18
2023-11-12T12:27:21.295Z,78.35
2023-11-12T12:29:48.420Z,79.41
2023-11-12T12:32:16.708Z,79.47
2023-11-12T12:34:43.148Z,79.52
2023-11-12T12:37:09.640Z,81.12
2023-11-12T12:39:51.425Z,79.06
2023-11-12T12:42:18.050Z,78.86
2023-11-12T12:44:48.607Z,79.87
2023-11-12T12:47:38.037Z,80.59
2023-11-12T12:50:17.889Z,80.55
2023-11-12T12:52:46.501Z,81.88
2023-11-12T12:55:16.685Z,82.38
2023-11-12T12:57:44.586Z,82.11
2023-11-12T13:00:11.625Z,82.51
2023-11-12T13:02:41.890Z,82.20
2023-11-12T13:05:10.069Z,82.61
2023-11-12T13:07:36.535Z,85.26
2023-11-12T13:10:03.230Z,84.62
2023-11-12T13:12:29.753Z,83.94
2023-11-12T13:14:56.250Z,84.56
2023-11-12T13:17:22.674Z,86.01
2023-11-12T13:19:49.391Z,85.16
2023-11-12T13:22:15.866Z,83.17
2023-11-12T13:24:42.610Z,84.70
2023-11-12T13:27:09.099Z,82.19
2023-11-12T13:29:35.598Z,81.61
2023-11-12T13:32:02.119Z,80.45
2023-11-12T13:34:28.585Z,77.47
2023-11-12T13:36:55.079Z,77.75
2023-11-12T13:39:21.562Z,77.35
2023-11-12T13:41:48.077Z,76.48
2023-11-12T13:44:14.560Z,78.09
2023-11-12T13:46:41.028Z,77.57
2023-11-12T13:49:07.607Z,76.96
2023-11-12T13:51:34.168Z,77.04
2023-11-12T13:54:00.605Z,76.52
2023-11-12T13:56:27.059Z,77.28
2023-11-12T13:58:53.497Z,77.05
2023-11-12T14:01:23.730Z,77.22
2023-11-12T14:03:50.706Z,76.30
2023-11-12T14:06:17.812Z,76.72
2023-11-12T14:08:44.376Z,76.98
2023-11-12T14:11:10.822Z,75.44
2023-11-12T14:13:37.239Z,76.70
2023-11-12T14:16:04.023Z,76.73
2023-11-12T14:18:30.572Z,77.19
2023-11-12T14:20:57.056Z,76.21
2023-11-12T14:23:23.478Z,76.61
2023-11-12T14:25:49.922Z,76.39
2023-11-12T14:28:16.348Z,75.38
2023-11-12T14:30:42.846Z,74.38
2023-11-12T14:33:09.363Z,76.71
2023-11-12T14:35:35.848Z,75.24
2023-11-12T14:38:02.674Z,74.98
2023-11-12T14:40:29.126Z,74.86
2023-11-12T14:42:55.617Z,76.48
2023-11-12T14:45:28.736Z,75.79
2023-11-12T14:47:57.587Z,76.40
2023-11-12T14:50:24.044Z,76.79
2023-11-12T14:52:50.615Z,76.23
2023-11-12T14:55:24.449Z,75.12
2023-11-12T14:57:52.707Z,75.34
2023-11-12T15:00:19.260Z,76.15
2023-11-12T15:02:46.691Z,76.89
2023-11-12T15:05:15.139Z,76.55
2023-11-12T15:07:41.549Z,77.08
2023-11-12T15:10:08.661Z,77.32
2023-11-12T15:12:35.313Z,78.24
2023-11-12T15:15:02.889Z,77.89
2023-11-12T15:17:31.384Z,78.29
2023-11-12T15:19:59.325Z,81.09
2023-11-12T15:22:25.754Z,80.97
2023-11-12T15:24:52.255Z,80.71
2023-11-12T15:27:18.768Z,79.79
2023-11-12T15:29:45.200Z,80.64
2023-11-12T15:32:11.653Z,80.88
2023-11-12T15:34:38.083Z,81.14
2023-11-12T15:37:04.973Z,81.18
2023-11-12T15:39:31.470Z,81.69
2023-11-12T15:41:57.900Z,81.74
2023-11-12T15:44:24.344Z,81.60
2023-11-12T15:46:53.757Z,81.40
2023-11-12T15:49:20.279Z,81.38
2023-11-12T15:51:46.740Z,81.29
2023-11-12T15:54:13.176Z,81.52
2023-11-12T15:56:39.627Z,81.96
2023-11-12T15:59:06.107Z,82.79
2023-11-12T16:01:32.662Z,84.40
2023-11-12T16:03:59.241Z,84.80
2023-11-12T16:06:25.766Z,84.93
2023-11-12T16:08:56.326Z,85.60
2023-11-12T16:11:23.334Z,85.86
2023-11-12T16:13:49.780Z,86.07
2023-11-12T16:16:16.254Z,86.17
2023-11-12T16:18:42.747Z,86.71
2023-11-12T16:21:09.238Z,86.75
2023-11-12T16:23:35.674Z,86.72
2023-11-12T16:26:02.119Z,86.68
2023-11-12T16:28:28.572Z,87.01
2023-11-12T16:30:55.129Z,87.79
2023-11-12T16:33:21.700Z,87.85
2023-11-12T16:35:48.159Z,88.44
2023-11-12T16:38:14.802Z,88.61
2023-11-12T16:40:41.353Z,88.50
2023-11-12T16:43:07.877Z,88.67
2023-11-12T16:45:34.346Z,88.14
2023-11-12T16:48:00.879Z,87.99
2023-11-12T16:50:27.350Z,88.34
2023-11-12T16:52:53.799Z,88.30
2023-11-12T16:55:20.257Z,88.11
2023-11-12T16:57:46.789Z,88.60
2023-11-12T17:00:13.603Z,89.17
2023-11-12T17:02:40.390Z,89.93
2023-11-12T17:05:07.189Z,90.84
2023-11-12T17:07:34.015Z,91.27
2023-11-12T17:10:00.528Z,91.73
2023-11-12T17:12:27.006Z,91.70
2023-11-12T17:14:53.464Z,91.54
2023-11-12T17:17:19.911Z,91.72
2023-11-12T17:19:46.348Z,92.03
2023-11-12T17:22:12.816Z,92.61
2023-11-12T17:24:39.446Z,92.62
2023-11-12T17:27:05.948Z,92.62
2023-11-12T17:29:32.414Z,93.12
2023-11-12T17:31:58.895Z,94.67
2023-11-12T17:34:25.341Z,94.20
2023-11-12T17:36:51.801Z,94.35
2023-11-12T17:39:18.253Z,94.97
2023-11-12T17:41:45.173Z,94.66
2023-11-12T17:44:11.617Z,94.63
2023-11-12T17:46:38.173Z,94.75
2023-11-12T17:49:04.698Z,100.00
2023-11-12T17:51:31.175Z,98.89
2023-11-12T17:53:57.613Z,97.34
2023-11-12T17:56:24.097Z,95.82
2023-11-12T17:58:50.529Z,95.38
2023-11-12T18:01:17.625Z,96.57
2023-11-12T18:03:44.265Z,99.87
2023-11-12T18:06:11.202Z,97.77
2023-11-12T18:08:37.784Z,96.96
2023-11-12T18:11:05.229Z,96.35
2023-11-12T18:13:34.304Z,95.80
2023-11-12T18:16:01.963Z,96.60
2023-11-12T18:18:28.511Z,95.96
2023-11-12T18:20:55.128Z,96.36
2023-11-12T18:23:21.846Z,96.48
2023-11-12T18:25:48.276Z,96.88
2023-11-12T18:28:14.729Z,96.28
2023-11-12T18:30:48.553Z,96.64
2023-11-12T18:33:16.223Z,97.07
2023-11-12T18:35:43.865Z,96.49
2023-11-12T18:38:12.357Z,96.19
2023-11-12T18:40:39.815Z,95.36
2023-11-12T18:43:06.304Z,95.57
2023-11-12T18:45:32.767Z,95.66
2023-11-12T18:47:59.693Z,96.03
2023-11-12T18:50:26.288Z,96.40
2023-11-12T18:52:52.728Z,96.05
2023-11-12T18:55:19.194Z,95.45
2023-11-12T18:57:46.115Z,95.18
2023-11-12T19:00:14.016Z,94.82
2023-11-12T19:02:40.963Z,95.10
2023-11-12T19:05:08.387Z,94.63
2023-11-12T19:07:35.492Z,94.60
2023-11-12T19:10:03.252Z,94.70
2023-11-12T19:12:29.736Z,94.98
2023-11-12T19:14:56.177Z,95.22
2023-11-12T19:17:22.696Z,96.01
2023-11-12T19:19:49.337Z,96.05
2023-11-12T19:22:15.823Z,95.96
2023-11-12T19:24:42.725Z,96.36
2023-11-12T19:27:09.296Z,96.00
2023-11-12T19:29:35.760Z,96.32
2023-11-12T19:32:02.350Z,96.22
2023-11-12T19:34:30.179Z,96.63
2023-11-12T19:36:57.710Z,96.97
2023-11-12T19:39:24.388Z,96.76
2023-11-12T19:41:51.065Z,96.63
2023-11-12T19:44:17.518Z,96.33
2023-11-12T19:46:44.556Z,96.27
2023-11-12T19:49:11.627Z,96.38
2023-11-12T19:51:41.945Z,96.31
2023-11-12T19:54:09.349Z,96.06
2023-11-12T19:56:35.774Z,96.23
2023-11-12T19:59:02.229Z,96.11
2023-11-12T20:01:29.392Z,95.93
2023-11-12T20:03:56.904Z,96.19
2023-11-12T20:06:24.115Z,96.32
2023-11-12T20:08:50.915Z,96.41
2023-11-12T20:11:19.791Z,96.38
2023-11-12T20:13:47.727Z,96.36
2023-11-12T20:16:19.875Z,96.36
2023-11-12T20:18:46.435Z,96.11
2023-11-12T20:21:13.031Z,96.23
2023-11-12T20:23:41.670Z,96.72
2023-11-12T20:26:08.201Z,96.94
2023-11-12T20:28:35.135Z,96.43
2023-11-12T20:31:02.211Z,96.39
2023-11-12T20:33:28.696Z,96.31
2023-11-12T20:35:55.655Z,96.46
2023-11-12T20:38:22.096Z,96.05
2023-11-12T20:40:48.508Z,96.05
2023-11-12T20:43:15.010Z,96.16
2023-11-12T20:45:41.827Z,96.75
2023-11-12T20:48:08.822Z,97.24
2023-11-12T20:50:36.700Z,97.54
2023-11-12T20:53:04.583Z,97.43
2023-11-12T20:55:31.023Z,97.27
2023-11-12T20:57:57.796Z,97.44
2023-11-12T21:00:24.318Z,97.51
2023-11-12T21:02:51.109Z,97.47
2023-11-12T21:05:18.076Z,97.39
2023-11-12T21:07:44.519Z,97.01
2023-11-12T21:10:11.003Z,97.14
2023-11-12T21:12:37.467Z,97.33
2023-11-12T21:15:04.482Z,97.55
2023-11-12T21:17:30.929Z,97.38
2023-11-12T21:19:57.391Z,97.39
2023-11-12T21:22:23.857Z,97.12
2023-11-12T21:24:50.318Z,96.72
2023-11-12T21:27:16.973Z,96.42
2023-11-12T21:29:43.431Z,95.93
2023-11-12T21:32:09.943Z,96.14
2023-11-12T21:34:37.756Z,96.00
2023-11-12T21:37:04.527Z,95.56
2023-11-12T21:39:30.973Z,96.11
2023-11-12T21:41:57.420Z,97.21
2023-11-12T21:44:23.996Z,97.32
2023-11-12T21:46:50.519Z,96.34
2023-11-12T21:49:17.099Z,95.78
2023-11-12T21:51:43.637Z,95.78
2023-11-12T21:54:10.066Z,95.76
2023-11-12T21:56:36.509Z,96.50
2023-11-12T21:59:03.365Z,96.56
2023-11-12T22:01:29.950Z,96.77
2023-11-12T22:03:56.530Z,96.36
2023-11-12T22:06:23.062Z,96.14
2023-11-12T22:08:49.489Z,95.89
2023-11-12T22:11:16.311Z,96.43
2023-11-12T22:13:42.742Z,97.16
2023-11-12T22:16:09.216Z,97.84
2023-11-12T22:18:35.696Z,98.42
2023-11-12T22:21:02.197Z,98.61
2023-11-12T22:23:28.645Z,98.53
2023-11-12T22:25:55.131Z,98.50
2023-11-12T22:28:21.728Z,98.18
2023-11-12T22:30:48.240Z,98.46
2023-11-12T22:33:14.726Z,98.34
2023-11-12T22:35:41.174Z,98.75
2023-11-12T22:38:07.624Z,99.06
2023-11-12T22:40:34.060Z,99.38
2023-11-12T22:43:00.606Z,99.40
2023-11-12T22:45:27.062Z,99.29
2023-11-12T22:47:53.609Z,99.16
2023-11-12T22:50:20.236Z,98.89
2023-11-12T22:52:46.710Z,98.79
2023-11-12T22:55:13.490Z,98.10
2023-11-12T22:57:40.560Z,97.50
2023-11-12T23:00:07.898Z,97.27
2023-11-12T23:02:34.438Z,97.51
2023-11-12T23:05:00.932Z,97.75
2023-11-12T23:07:27.394Z,97.57
2023-11-12T23:09:54.099Z,96.92
2023-11-12T23:12:20.560Z,96.94
2023-11-12T23:14:47.024Z,97.13
2023-11-12T23:17:13.510Z,97.21
2023-11-12T23:19:39.988Z,97.11
2023-11-12T23:22:06.503Z,97.06
2023-11-12T23:24:33.007Z,96.98
2023-11-12T23:26:59.517Z,97.05
2023-11-12T23:29:26.099Z,97.67
2023-11-12T23:31:52.628Z,97.91
2023-11-12T23:34:19.190Z,97.91
2023-11-12T23:36:45.679Z,97.68
2023-11-12T23:39:12.192Z,97.42
2023-11-12T23:41:38.637Z,97.39
2023-11-12T23:44:05.191Z,98.01
2023-11-12T23:46:31.702Z,97.78
2023-11-12T23:48:58.301Z,97.67
2023-11-12T23:51:24.767Z,97.55
2023-11-12T23:53:51.194Z,97.43
2023-11-12T23:56:17.663Z,97.78
2023-11-12T23:58:44.116Z,97.93
